createdAt,value
2023-02-08T00:00:58.940Z,2.06
2023-02-08T00:03:28.160Z,2.05
2023-02-08T00:05:55.181Z,2.05
2023-02-08T00:08:22.205Z,2.05
2023-02-08T00:10:50.319Z,1.98
2023-02-08T00:13:17.813Z,1.99
2023-02-08T00:15:46.935Z,2.05
2023-02-08T00:18:14.844Z,2.02
2023-02-08T00:20:43.232Z,1.92
2023-02-08T00:23:11.448Z,2.13
2023-02-08T00:25:39.853Z,2.05
2023-02-08T00:28:09.485Z,2.09
2023-02-08T00:30:36.666Z,1.96
2023-02-08T00:33:04.726Z,1.90
2023-02-08T00:35:32.095Z,1.91
2023-02-08T00:37:59.166Z,1.93
2023-02-08T00:40:27.038Z,2.00
2023-02-08T00:42:54.150Z,1.94
2023-02-08T00:45:21.343Z,1.98
2023-02-08T00:47:48.339Z,1.95
2023-02-08T00:50:15.516Z,1.92
2023-02-08T00:52:42.515Z,1.92
2023-02-08T00:55:09.659Z,1.93
2023-02-08T00:57:36.773Z,1.97
2023-02-08T01:00:06.241Z,1.97
2023-02-08T01:02:33.629Z,1.96
2023-02-08T01:05:00.743Z,1.89
2023-02-08T01:07:27.840Z,1.86
2023-02-08T01:09:54.849Z,1.92
2023-02-08T01:12:21.854Z,1.82
2023-02-08T01:14:49.272Z,1.91
2023-02-08T01:17:16.348Z,1.90
2023-02-08T01:19:43.358Z,1.91
2023-02-08T01:22:10.379Z,1.97
2023-02-08T01:24:37.432Z,1.90
2023-02-08T01:27:04.644Z,1.85
2023-02-08T01:29:31.714Z,1.95
2023-02-08T01:31:58.781Z,1.88
2023-02-08T01:34:25.855Z,1.86
2023-02-08T01:36:52.877Z,1.80
2023-02-08T01:39:19.961Z,1.74
2023-02-08T01:41:47.205Z,1.71
2023-02-08T01:44:14.149Z,1.80
2023-02-08T01:46:48.777Z,1.79
2023-02-08T01:49:30.308Z,1.91
2023-02-08T01:52:19.249Z,1.99
2023-02-08T01:55:14.122Z,1.90
2023-02-08T01:57:43.107Z,1.94
2023-02-08T02:00:17.894Z,1.80
2023-02-08T02:02:47.856Z,1.74
2023-02-08T02:05:17.497Z,1.69
2023-02-08T02:07:44.995Z,1.81
2023-02-08T02:10:25.435Z,1.71
2023-02-08T02:12:55.136Z,1.74
2023-02-08T02:15:22.404Z,1.75
2023-02-08T02:17:49.813Z,1.75
2023-02-08T02:20:29.399Z,1.79
2023-02-08T02:23:20.808Z,1.69
2023-02-08T02:25:59.769Z,1.65
2023-02-08T02:28:52.883Z,1.67
2023-02-08T02:31:40.564Z,1.65
2023-02-08T02:35:05.475Z,1.65
2023-02-08T02:38:08.788Z,1.67
2023-02-08T02:40:50.399Z,1.72
2023-02-08T02:43:46.310Z,1.78
2023-02-08T02:46:35.295Z,1.67
2023-02-08T02:50:07.127Z,1.78
2023-02-08T02:53:05.928Z,1.63
2023-02-08T02:55:40.726Z,1.68
2023-02-08T02:58:10.763Z,1.65
2023-02-08T03:00:38.382Z,1.71
2023-02-08T03:03:07.085Z,1.65
2023-02-08T03:05:34.698Z,1.63
2023-02-08T03:08:39.439Z,1.77
2023-02-08T03:11:31.720Z,1.71
2023-02-08T03:14:36.691Z,1.63
2023-02-08T03:17:27.668Z,1.58
2023-02-08T03:20:16.598Z,1.86
2023-02-08T03:23:10.520Z,1.88
2023-02-08T03:25:58.022Z,1.72
2023-02-08T03:28:28.615Z,1.67
2023-02-08T03:31:21.490Z,1.85
2023-02-08T03:34:13.217Z,1.99
2023-02-08T03:36:55.816Z,1.76
2023-02-08T03:39:28.895Z,1.66
2023-02-08T03:42:01.257Z,1.64
2023-02-08T03:44:41.813Z,1.66
2023-02-08T03:47:19.663Z,1.76
2023-02-08T03:49:54.128Z,1.77
2023-02-08T03:52:23.165Z,1.51
2023-02-08T03:55:01.209Z,1.55
2023-02-08T03:57:38.379Z,1.53
2023-02-08T04:00:16.303Z,1.65
2023-02-08T04:03:09.228Z,1.42
2023-02-08T04:05:37.226Z,1.48
2023-02-08T04:08:04.732Z,1.52
2023-02-08T04:10:31.907Z,1.45
2023-02-08T04:12:59.282Z,1.53
2023-02-08T04:15:27.437Z,1.49
2023-02-08T04:17:55.074Z,1.56
2023-02-08T04:20:22.263Z,1.59
2023-02-08T04:22:49.847Z,1.43
2023-02-08T04:25:17.102Z,1.52
2023-02-08T04:27:44.157Z,1.47
2023-02-08T04:30:12.387Z,1.54
2023-02-08T04:32:39.404Z,1.48
2023-02-08T04:35:07.196Z,1.36
2023-02-08T04:37:34.526Z,1.34
2023-02-08T04:40:01.661Z,1.21
2023-02-08T04:42:28.827Z,1.28
2023-02-08T04:44:55.972Z,1.35
2023-02-08T04:47:23.347Z,1.32
2023-02-08T04:49:50.348Z,1.38
2023-02-08T04:52:17.358Z,1.33
2023-02-08T04:54:44.402Z,1.30
2023-02-08T04:57:15.355Z,1.43
2023-02-08T04:59:42.575Z,1.36
2023-02-08T05:02:10.004Z,1.47
2023-02-08T05:04:37.021Z,1.31
2023-02-08T05:07:04.150Z,1.25
2023-02-08T05:09:32.649Z,1.16
2023-02-08T05:11:59.663Z,1.26
2023-02-08T05:14:26.679Z,1.27
2023-02-08T05:16:53.717Z,1.14
2023-02-08T05:19:20.683Z,1.09
2023-02-08T05:21:47.697Z,1.26
2023-02-08T05:24:14.749Z,1.37
2023-02-08T05:26:42.116Z,1.31
2023-02-08T05:29:09.118Z,1.24
2023-02-08T05:31:36.534Z,1.31
2023-02-08T05:34:03.987Z,1.24
2023-02-08T05:36:31.038Z,1.17
2023-02-08T05:38:58.110Z,1.19
2023-02-08T05:41:25.191Z,1.25
2023-02-08T05:43:52.249Z,1.31
2023-02-08T05:46:19.318Z,1.32
2023-02-08T05:48:46.485Z,1.21
2023-02-08T05:51:13.520Z,1.13
2023-02-08T05:53:40.600Z,1.14
2023-02-08T05:56:07.816Z,1.29
2023-02-08T05:58:35.258Z,1.25
2023-02-08T06:01:07.389Z,1.32
2023-02-08T06:03:34.367Z,1.32
2023-02-08T06:06:01.768Z,1.18
2023-02-08T06:08:28.868Z,1.23
2023-02-08T06:10:55.973Z,1.36
2023-02-08T06:13:23.153Z,1.33
2023-02-08T06:15:50.285Z,1.31
2023-02-08T06:18:18.527Z,1.21
2023-02-08T06:20:45.555Z,1.15
2023-02-08T06:23:12.654Z,1.26
2023-02-08T06:25:39.719Z,1.35
2023-02-08T06:28:08.916Z,1.34
2023-02-08T06:30:36.799Z,1.31
2023-02-08T06:33:04.851Z,1.43
2023-02-08T06:35:32.772Z,1.37
2023-02-08T06:37:59.917Z,1.42
2023-02-08T06:40:27.192Z,1.43
2023-02-08T06:42:54.189Z,1.46
2023-02-08T06:45:21.185Z,1.55
2023-02-08T06:47:48.185Z,1.60
2023-02-08T06:50:15.304Z,1.59
2023-02-08T06:52:42.352Z,1.58
2023-02-08T06:55:09.334Z,1.68
2023-02-08T06:57:36.394Z,1.69
2023-02-08T07:00:05.334Z,1.71
2023-02-08T07:02:32.776Z,1.78
2023-02-08T07:04:59.782Z,1.85
2023-02-08T07:07:28.070Z,1.88
2023-02-08T07:09:55.096Z,1.91
2023-02-08T07:12:22.106Z,2.05
2023-02-08T07:14:49.232Z,2.10
2023-02-08T07:17:16.328Z,2.03
2023-02-08T07:19:43.335Z,2.10
2023-02-08T07:22:10.377Z,2.03
2023-02-08T07:24:40.651Z,2.02
2023-02-08T07:27:10.593Z,2.02
2023-02-08T07:29:38.350Z,1.95
2023-02-08T07:32:07.413Z,1.91
2023-02-08T07:34:37.458Z,2.08
2023-02-08T07:37:04.848Z,2.16
2023-02-08T07:39:32.142Z,2.05
2023-02-08T07:41:59.891Z,2.13
2023-02-08T07:44:26.988Z,2.10
2023-02-08T07:46:54.049Z,2.22
2023-02-08T07:49:21.152Z,2.24
2023-02-08T07:51:48.176Z,2.21
2023-02-08T07:54:15.793Z,2.14
2023-02-08T07:56:42.858Z,2.18
2023-02-08T07:59:09.908Z,2.14
2023-02-08T08:01:37.014Z,2.26
2023-02-08T08:04:04.386Z,2.28
2023-02-08T08:06:31.408Z,2.28
2023-02-08T08:08:58.652Z,2.37
2023-02-08T08:11:25.711Z,2.42
2023-02-08T08:13:53.111Z,2.49
2023-02-08T08:16:20.826Z,2.40
2023-02-08T08:18:48.152Z,2.35
2023-02-08T08:21:16.756Z,2.31
2023-02-08T08:23:44.328Z,2.31
2023-02-08T08:26:16.162Z,2.42
2023-02-08T08:28:43.791Z,2.54
2023-02-08T08:31:16.744Z,2.64
2023-02-08T08:33:44.286Z,2.68
2023-02-08T08:36:11.510Z,2.72
2023-02-08T08:38:39.382Z,2.75
2023-02-08T08:41:12.650Z,2.71
2023-02-08T08:43:39.706Z,2.77
2023-02-08T08:46:10.629Z,2.84
2023-02-08T08:48:40.734Z,2.80
2023-02-08T08:51:07.755Z,2.84
2023-02-08T08:53:37.087Z,2.87
2023-02-08T08:56:05.723Z,2.92
2023-02-08T08:58:33.105Z,2.89
2023-02-08T09:01:00.589Z,2.89
2023-02-08T09:03:29.017Z,2.93
2023-02-08T09:05:56.909Z,2.88
2023-02-08T09:08:24.200Z,2.81
2023-02-08T09:10:51.204Z,3.18
2023-02-08T09:13:21.855Z,2.89
2023-02-08T09:15:49.922Z,2.95
2023-02-08T09:18:17.066Z,2.99
2023-02-08T09:20:44.475Z,3.08
2023-02-08T09:23:12.783Z,3.15
2023-02-08T09:25:40.174Z,3.15
2023-02-08T09:28:07.257Z,3.16
2023-02-08T09:30:34.295Z,3.09
2023-02-08T09:33:01.319Z,3.12
2023-02-08T09:35:28.373Z,3.17
2023-02-08T09:37:58.171Z,3.21
2023-02-08T09:40:36.031Z,3.13
2023-02-08T09:43:44.576Z,3.18
2023-02-08T09:46:36.025Z,3.22
2023-02-08T09:49:09.561Z,3.32
2023-02-08T09:51:41.902Z,3.27
2023-02-08T09:54:29.839Z,3.55
2023-02-08T09:57:01.511Z,3.54
2023-02-08T09:59:32.775Z,3.55
2023-02-08T10:02:27.393Z,3.69
2023-02-08T10:05:00.242Z,3.67
2023-02-08T10:07:28.978Z,3.71
2023-02-08T10:10:02.260Z,3.78
2023-02-08T10:12:43.580Z,3.75
2023-02-08T10:15:16.412Z,3.79
2023-02-08T10:18:19.596Z,3.81
2023-02-08T10:21:24.793Z,3.79
2023-02-08T10:24:22.140Z,3.93
2023-02-08T10:27:16.101Z,3.95
2023-02-08T10:30:24.925Z,3.98
2023-02-08T10:33:02.975Z,4.05
2023-02-08T10:35:39.196Z,4.00
2023-02-08T10:38:31.935Z,3.87
2023-02-08T10:41:07.938Z,3.92
2023-02-08T10:43:45.993Z,3.91
2023-02-08T10:46:35.602Z,4.01
2023-02-08T10:49:31.946Z,3.88
2023-02-08T10:51:58.989Z,3.92
2023-02-08T10:54:26.032Z,3.70
2023-02-08T10:57:12.985Z,3.77
2023-02-08T10:59:51.176Z,3.84
2023-02-08T11:02:26.814Z,3.80
2023-02-08T11:05:12.773Z,3.74
2023-02-08T11:07:39.942Z,3.76
2023-02-08T11:10:16.130Z,3.75
2023-02-08T11:13:14.908Z,3.72
2023-02-08T11:15:52.707Z,3.75
2023-02-08T11:18:37.808Z,3.62
2023-02-08T11:21:20.853Z,3.63
2023-02-08T11:23:55.571Z,3.58
2023-02-08T11:26:33.543Z,3.47
2023-02-08T11:29:27.593Z,3.41
2023-02-08T11:32:02.739Z,3.46
2023-02-08T11:34:38.529Z,3.52
2023-02-08T11:37:25.941Z,3.48
2023-02-08T11:40:01.316Z,3.50
2023-02-08T11:42:35.957Z,3.49
2023-02-08T11:45:04.861Z,3.57
2023-02-08T11:47:37.482Z,3.54
2023-02-08T11:50:08.278Z,3.48
2023-02-08T11:52:41.429Z,3.59
2023-02-08T11:55:16.748Z,3.56
2023-02-08T11:58:17.991Z,3.68
2023-02-08T12:01:05.017Z,3.73
2023-02-08T12:03:38.802Z,3.84
2023-02-08T12:06:30.390Z,3.95
2023-02-08T12:09:03.124Z,4.17
2023-02-08T12:11:43.437Z,4.10
2023-02-08T12:14:40.949Z,4.11
2023-02-08T12:17:26.872Z,4.03
2023-02-08T12:20:30.591Z,4.05
2023-02-08T12:23:43.375Z,4.01
2023-02-08T12:26:31.000Z,4.08
2023-02-08T12:29:33.134Z,3.95
2023-02-08T12:32:11.369Z,3.94
2023-02-08T12:35:41.432Z,3.96
2023-02-08T12:38:54.531Z,4.02
2023-02-08T12:42:03.744Z,4.07
2023-02-08T12:44:54.144Z,4.13
2023-02-08T12:48:04.035Z,4.11
2023-02-08T12:50:56.129Z,4.22
2023-02-08T12:53:54.726Z,4.25
2023-02-08T12:56:29.703Z,4.29
2023-02-08T12:59:11.894Z,4.50
2023-02-08T13:01:47.294Z,4.57
2023-02-08T13:04:23.165Z,4.80
2023-02-08T13:07:08.770Z,4.85
2023-02-08T13:09:44.424Z,4.91
2023-02-08T13:12:38.253Z,4.91
2023-02-08T13:15:30.674Z,4.77
2023-02-08T13:18:12.195Z,4.83
2023-02-08T13:20:53.677Z,4.98
2023-02-08T13:23:38.449Z,4.89
2023-02-08T13:26:31.735Z,4.77
2023-02-08T13:29:02.738Z,4.96
2023-02-08T13:31:39.026Z,4.94
2023-02-08T13:34:28.079Z,5.07
2023-02-08T13:37:03.641Z,5.10
2023-02-08T13:39:45.599Z,5.04
2023-02-08T13:42:48.484Z,5.06
2023-02-08T13:45:39.564Z,5.00
2023-02-08T13:48:14.395Z,4.94
2023-02-08T13:50:54.296Z,4.96
2023-02-08T13:53:39.890Z,4.82
2023-02-08T13:56:12.401Z,4.75
2023-02-08T13:58:39.492Z,4.61
2023-02-08T14:01:15.235Z,4.64
2023-02-08T14:03:42.508Z,4.55
2023-02-08T14:06:28.131Z,4.39
2023-02-08T14:09:26.905Z,4.44
2023-02-08T14:12:03.577Z,4.42
2023-02-08T14:14:38.572Z,4.36
2023-02-08T14:17:05.471Z,4.34
2023-02-08T14:19:36.610Z,4.34
2023-02-08T14:22:17.284Z,4.17
2023-02-08T14:25:00.527Z,4.05
2023-02-08T14:27:50.694Z,3.95
2023-02-08T14:30:17.597Z,3.82
2023-02-08T14:33:08.695Z,3.80
2023-02-08T14:35:50.586Z,3.80
2023-02-08T14:38:20.769Z,3.87
2023-02-08T14:40:55.124Z,3.83
2023-02-08T14:43:37.991Z,3.82
2023-02-08T14:46:39.179Z,3.91
2023-02-08T14:49:15.904Z,3.95
2023-02-08T14:51:56.579Z,3.87
2023-02-08T14:54:39.825Z,3.88
2023-02-08T14:57:28.124Z,3.81
2023-02-08T14:59:59.074Z,3.71
2023-02-08T15:02:37.177Z,3.64
2023-02-08T15:05:09.897Z,3.52
2023-02-08T15:07:57.432Z,3.46
2023-02-08T15:10:27.085Z,3.40
2023-02-08T15:13:00.680Z,3.31
2023-02-08T15:15:41.586Z,3.26
2023-02-08T15:18:20.509Z,3.25
2023-02-08T15:21:03.633Z,3.22
2023-02-08T15:23:30.980Z,3.19
2023-02-08T15:26:19.676Z,3.20
2023-02-08T15:28:46.854Z,3.18
2023-02-08T15:31:19.250Z,3.15
2023-02-08T15:33:47.470Z,3.07
2023-02-08T15:36:24.650Z,3.03
2023-02-08T15:38:52.067Z,3.13
2023-02-08T15:41:34.373Z,3.01
2023-02-08T15:44:30.130Z,2.99
2023-02-08T15:47:04.332Z,3.08
2023-02-08T15:49:43.589Z,2.96
2023-02-08T15:52:19.536Z,2.94
2023-02-08T15:54:47.222Z,2.94
2023-02-08T15:57:38.753Z,2.90
2023-02-08T16:00:13.239Z,2.88
2023-02-08T16:02:41.289Z,2.80
2023-02-08T16:05:26.819Z,2.77
2023-02-08T16:07:54.696Z,2.76
2023-02-08T16:10:46.637Z,2.71
2023-02-08T16:13:30.314Z,2.78
2023-02-08T16:16:20.300Z,2.65
2023-02-08T16:18:58.662Z,2.71
2023-02-08T16:21:25.523Z,2.77
2023-02-08T16:23:56.714Z,2.71
2023-02-08T16:26:32.270Z,2.60
2023-02-08T16:29:02.807Z,2.64
2023-02-08T16:31:33.303Z,2.60
2023-02-08T16:34:07.658Z,2.51
2023-02-08T16:36:40.535Z,2.57
2023-02-08T16:39:19.482Z,2.54
2023-02-08T16:42:06.376Z,2.52
2023-02-08T16:45:23.535Z,2.62
2023-02-08T16:47:58.378Z,2.47
2023-02-08T16:50:28.482Z,2.51
2023-02-08T16:53:04.116Z,2.50
2023-02-08T16:55:36.364Z,2.50
2023-02-08T16:58:03.456Z,2.51
2023-02-08T17:00:33.322Z,2.50
2023-02-08T17:03:01.258Z,2.46
2023-02-08T17:05:35.261Z,2.45
2023-02-08T17:08:09.952Z,2.43
2023-02-08T17:10:38.093Z,2.41
2023-02-08T17:13:19.753Z,2.31
2023-02-08T17:15:49.587Z,2.25
2023-02-08T17:18:16.746Z,2.12
2023-02-08T17:20:44.115Z,2.23
2023-02-08T17:23:11.719Z,2.18
2023-02-08T17:25:39.297Z,2.13
2023-02-08T17:28:14.380Z,2.12
2023-02-08T17:30:43.753Z,2.06
2023-02-08T17:33:18.298Z,2.01
2023-02-08T17:35:51.405Z,1.87
2023-02-08T17:38:20.085Z,1.86
2023-02-08T17:40:48.021Z,1.88
2023-02-08T17:43:15.146Z,1.92
2023-02-08T17:45:43.847Z,1.78
2023-02-08T17:48:13.530Z,1.92
2023-02-08T17:50:47.777Z,1.83
2023-02-08T17:53:15.989Z,1.76
2023-02-08T17:55:47.222Z,1.77
2023-02-08T17:58:14.398Z,1.76
2023-02-08T18:00:41.462Z,1.68
2023-02-08T18:03:08.638Z,1.63
2023-02-08T18:05:36.951Z,1.68
2023-02-08T18:08:04.076Z,1.56
2023-02-08T18:10:31.152Z,1.44
2023-02-08T18:12:59.087Z,1.30
2023-02-08T18:15:26.069Z,1.42
2023-02-08T18:17:53.156Z,1.17
2023-02-08T18:20:20.578Z,1.14
2023-02-08T18:22:47.690Z,1.13
2023-02-08T18:25:16.144Z,1.15
2023-02-08T18:27:43.520Z,1.08
2023-02-08T18:30:12.394Z,1.17
2023-02-08T18:32:39.867Z,1.11
2023-02-08T18:35:08.797Z,1.14
2023-02-08T18:37:37.659Z,1.07
2023-02-08T18:40:07.631Z,1.13
2023-02-08T18:42:36.335Z,1.08
2023-02-08T18:45:06.928Z,1.08
2023-02-08T18:47:36.533Z,1.07
2023-02-08T18:50:04.055Z,1.18
2023-02-08T18:52:31.721Z,1.19
2023-02-08T18:54:58.938Z,1.18
2023-02-08T18:57:25.942Z,1.15
2023-02-08T18:59:54.300Z,1.35
2023-02-08T19:02:23.061Z,1.32
2023-02-08T19:04:50.219Z,1.35
2023-02-08T19:07:17.216Z,1.37
2023-02-08T19:09:44.344Z,1.40
2023-02-08T19:12:15.666Z,1.25
2023-02-08T19:14:43.713Z,1.36
2023-02-08T19:17:13.581Z,1.28
2023-02-08T19:19:41.991Z,1.26
2023-02-08T19:22:09.551Z,1.21
2023-02-08T19:24:36.618Z,1.23
2023-02-08T19:27:03.985Z,1.13
2023-02-08T19:29:32.682Z,0.89
2023-02-08T19:31:59.748Z,0.89
2023-02-08T19:34:26.768Z,0.73
2023-02-08T19:36:54.862Z,0.74
2023-02-08T19:39:26.149Z,0.60
2023-02-08T19:41:54.680Z,0.71
2023-02-08T19:44:22.806Z,0.65
2023-02-08T19:46:53.952Z,0.66
2023-02-08T19:49:25.921Z,0.77
2023-02-08T19:51:53.543Z,0.90
2023-02-08T19:54:21.478Z,0.94
2023-02-08T19:56:50.409Z,0.92
2023-02-08T19:59:27.722Z,1.05
2023-02-08T20:01:55.638Z,1.03
2023-02-08T20:04:23.615Z,0.92
2023-02-08T20:06:53.727Z,0.96
2023-02-08T20:09:21.304Z,0.78
2023-02-08T20:11:57.356Z,0.80
2023-02-08T20:14:31.137Z,0.73
2023-02-08T20:16:58.801Z,0.82
2023-02-08T20:19:26.349Z,0.80
2023-02-08T20:21:53.641Z,0.82
2023-02-08T20:24:21.496Z,0.84
2023-02-08T20:26:49.327Z,0.71
2023-02-08T20:29:17.241Z,0.78
2023-02-08T20:31:47.703Z,0.78
2023-02-08T20:34:19.001Z,0.73
2023-02-08T20:37:04.556Z,0.72
2023-02-08T20:39:34.826Z,0.81
2023-02-08T20:42:01.839Z,0.67
2023-02-08T20:44:28.863Z,0.64
2023-02-08T20:46:56.007Z,0.55
2023-02-08T20:49:25.718Z,0.54
2023-02-08T20:51:55.831Z,0.66
2023-02-08T20:54:24.812Z,0.62
2023-02-08T20:56:53.816Z,0.65
2023-02-08T20:59:21.276Z,0.49
2023-02-08T21:01:48.568Z,0.58
2023-02-08T21:04:17.199Z,0.57
2023-02-08T21:06:46.246Z,0.54
2023-02-08T21:09:15.952Z,0.41
2023-02-08T21:11:44.097Z,0.35
2023-02-08T21:14:18.559Z,0.38
2023-02-08T21:16:52.444Z,0.42
2023-02-08T21:19:20.845Z,0.43
2023-02-08T21:21:56.997Z,0.31
2023-02-08T21:24:24.811Z,0.23
2023-02-08T21:26:56.580Z,0.27
2023-02-08T21:29:24.646Z,0.29
2023-02-08T21:31:54.148Z,0.28
2023-02-08T21:34:21.652Z,0.23
2023-02-08T21:36:48.802Z,0.34
2023-02-08T21:39:15.785Z,0.24
2023-02-08T21:41:42.808Z,0.29
2023-02-08T21:44:10.974Z,0.34
2023-02-08T21:46:38.140Z,0.24
2023-02-08T21:49:23.755Z,0.09
2023-02-08T21:52:09.884Z,0.09
2023-02-08T21:54:43.036Z,0.08
2023-02-08T21:57:20.797Z,0.09
2023-02-08T21:59:51.201Z,0.05
2023-02-08T22:02:25.909Z,0.01
2023-02-08T22:04:55.356Z,-0.03
2023-02-08T22:07:23.616Z,-0.11
2023-02-08T22:09:51.276Z,-0.23
2023-02-08T22:12:21.052Z,-0.16
2023-02-08T22:14:49.516Z,-0.20
2023-02-08T22:17:17.017Z,-0.24
2023-02-08T22:19:44.299Z,-0.22
2023-02-08T22:22:12.441Z,-0.21
2023-02-08T22:24:39.734Z,-0.23
2023-02-08T22:27:06.845Z,-0.33
2023-02-08T22:29:34.240Z,-0.38
2023-02-08T22:32:01.581Z,-0.30
2023-02-08T22:34:29.113Z,-0.44
2023-02-08T22:36:56.164Z,-0.54
2023-02-08T22:39:23.566Z,-0.44
2023-02-08T22:41:50.668Z,-0.41
2023-02-08T22:44:17.730Z,-0.58
2023-02-08T22:46:44.891Z,-0.66
2023-02-08T22:49:12.136Z,-0.65
2023-02-08T22:51:39.164Z,-0.63
2023-02-08T22:54:06.323Z,-0.70
2023-02-08T22:56:33.445Z,-0.71
2023-02-08T22:59:00.815Z,-0.72
2023-02-08T23:01:28.654Z,-0.85
2023-02-08T23:03:55.801Z,-0.83
2023-02-08T23:06:22.843Z,-0.88
2023-02-08T23:08:50.560Z,-0.76
2023-02-08T23:11:18.370Z,-0.84
2023-02-08T23:13:45.453Z,-0.77
2023-02-08T23:16:15.157Z,-0.98
2023-02-08T23:18:43.004Z,-0.93
2023-02-08T23:21:15.546Z,-0.98
2023-02-08T23:23:44.010Z,-1.06
2023-02-08T23:26:15.243Z,-1.12
2023-02-08T23:28:42.389Z,-1.14
2023-02-08T23:31:12.544Z,-1.22
2023-02-08T23:33:40.022Z,-1.19
2023-02-08T23:36:11.285Z,-1.17
2023-02-08T23:38:39.292Z,-1.16
2023-02-08T23:41:10.872Z,-1.16
2023-02-08T23:43:38.722Z,-1.28
2023-02-08T23:46:12.049Z,-1.21
2023-02-08T23:48:39.474Z,-1.22
2023-02-08T23:51:08.050Z,-1.34
2023-02-08T23:53:37.114Z,-1.29
2023-02-08T23:56:10.287Z,-1.13
2023-02-08T23:58:37.686Z,-1.27
